sensor_id;sensor_type;location;lat;lon;timestamp;temperature;humidity
15143;DHT22;7672;50.834;6.286;2023-06-14T00:01:45;20.40;94.30
15143;DHT22;7672;50.834;6.286;2023-06-14T00:04:13;20.30;94.00
15143;DHT22;7672;50.834;6.286;2023-06-14T00:06:40;20.40;94.50
15143;DHT22;7672;50.834;6.286;2023-06-14T00:09:08;20.30;94.80
15143;DHT22;7672;50.834;6.286;2023-06-14T00:11:35;20.40;95.20
15143;DHT22;7672;50.834;6.286;2023-06-14T00:14:02;20.20;95.40
15143;DHT22;7672;50.834;6.286;2023-06-14T00:16:30;20.20;95.60
15143;DHT22;7672;50.834;6.286;2023-06-14T00:18:59;20.20;96.10
15143;DHT22;7672;50.834;6.286;2023-06-14T00:21:26;20.10;96.30
15143;DHT22;7672;50.834;6.286;2023-06-14T00:23:57;20.10;96.60
15143;DHT22;7672;50.834;6.286;2023-06-14T00:26:25;19.90;96.90
15143;DHT22;7672;50.834;6.286;2023-06-14T00:28:54;19.80;97.40
15143;DHT22;7672;50.834;6.286;2023-06-14T00:31:21;19.70;97.90
15143;DHT22;7672;50.834;6.286;2023-06-14T00:33:48;19.70;97.80
15143;DHT22;7672;50.834;6.286;2023-06-14T00:36:15;19.50;98.40
15143;DHT22;7672;50.834;6.286;2023-06-14T00:38:42;19.40;98.70
15143;DHT22;7672;50.834;6.286;2023-06-14T00:41:09;19.30;99.20
15143;DHT22;7672;50.834;6.286;2023-06-14T00:43:36;19.40;99.80
15143;DHT22;7672;50.834;6.286;2023-06-14T00:46:03;19.30;99.90
15143;DHT22;7672;50.834;6.286;2023-06-14T00:48:31;19.20;99.90
15143;DHT22;7672;50.834;6.286;2023-06-14T00:51:00;19.30;99.90
15143;DHT22;7672;50.834;6.286;2023-06-14T00:53:31;19.10;99.90
15143;DHT22;7672;50.834;6.286;2023-06-14T00:56:02;19.00;99.90
15143;DHT22;7672;50.834;6.286;2023-06-14T00:58:30;18.90;99.90
15143;DHT22;7672;50.834;6.286;2023-06-14T01:00:58;18.80;99.90
15143;DHT22;7672;50.834;6.286;2023-06-14T01:03:44;18.80;99.90
15143;DHT22;7672;50.834;6.286;2023-06-14T01:06:50;18.70;99.90
15143;DHT22;7672;50.834;6.286;2023-06-14T01:09:41;18.70;99.90
15143;DHT22;7672;50.834;6.286;2023-06-14T01:12:50;18.60;99.90
15143;DHT22;7672;50.834;6.286;2023-06-14T01:15:31;18.60;99.90
15143;DHT22;7672;50.834;6.286;2023-06-14T01:17:59;18.50;99.90
15143;DHT22;7672;50.834;6.286;2023-06-14T01:20:32;18.40;99.90
15143;DHT22;7672;50.834;6.286;2023-06-14T01:23:03;18.40;99.90
15143;DHT22;7672;50.834;6.286;2023-06-14T01:25:30;18.30;99.90
15143;DHT22;7672;50.834;6.286;2023-06-14T01:28:01;18.30;99.90
15143;DHT22;7672;50.834;6.286;2023-06-14T01:30:31;18.20;99.90
15143;DHT22;7672;50.834;6.286;2023-06-14T01:33:00;18.20;99.90
15143;DHT22;7672;50.834;6.286;2023-06-14T01:35:29;18.20;99.90
15143;DHT22;7672;50.834;6.286;2023-06-14T01:37:57;18.20;99.90
15143;DHT22;7672;50.834;6.286;2023-06-14T01:40:29;18.20;99.90
15143;DHT22;7672;50.834;6.286;2023-06-14T01:42:58;18.20;99.90
15143;DHT22;7672;50.834;6.286;2023-06-14T01:45:26;18.20;99.90
15143;DHT22;7672;50.834;6.286;2023-06-14T01:47:56;18.20;99.90
15143;DHT22;7672;50.834;6.286;2023-06-14T01:50:28;18.20;99.90
15143;DHT22;7672;50.834;6.286;2023-06-14T01:52:57;18.10;99.90
15143;DHT22;7672;50.834;6.286;2023-06-14T01:55:25;18.10;99.90
15143;DHT22;7672;50.834;6.286;2023-06-14T01:57:52;18.10;99.90
15143;DHT22;7672;50.834;6.286;2023-06-14T02:00:20;18.00;99.90
15143;DHT22;7672;50.834;6.286;2023-06-14T02:02:48;18.00;99.90
15143;DHT22;7672;50.834;6.286;2023-06-14T02:05:16;17.90;99.90
15143;DHT22;7672;50.834;6.286;2023-06-14T02:07:45;17.90;99.90
15143;DHT22;7672;50.834;6.286;2023-06-14T02:10:15;17.80;99.90
15143;DHT22;7672;50.834;6.286;2023-06-14T02:12:44;17.80;99.90
15143;DHT22;7672;50.834;6.286;2023-06-14T02:15:11;17.70;99.90
15143;DHT22;7672;50.834;6.286;2023-06-14T02:17:44;17.70;99.90
15143;DHT22;7672;50.834;6.286;2023-06-14T02:20:11;17.70;99.90
15143;DHT22;7672;50.834;6.286;2023-06-14T02:22:39;17.60;99.90
15143;DHT22;7672;50.834;6.286;2023-06-14T02:25:07;17.60;99.90
15143;DHT22;7672;50.834;6.286;2023-06-14T02:27:35;17.60;99.90
15143;DHT22;7672;50.834;6.286;2023-06-14T02:30:03;17.60;99.90
15143;DHT22;7672;50.834;6.286;2023-06-14T02:32:32;17.70;99.90
15143;DHT22;7672;50.834;6.286;2023-06-14T02:35:04;17.60;99.90
15143;DHT22;7672;50.834;6.286;2023-06-14T02:37:31;17.60;99.90
15143;DHT22;7672;50.834;6.286;2023-06-14T02:39:59;17.70;99.90
15143;DHT22;7672;50.834;6.286;2023-06-14T02:42:26;17.70;99.90
15143;DHT22;7672;50.834;6.286;2023-06-14T02:44:53;17.70;99.90
15143;DHT22;7672;50.834;6.286;2023-06-14T02:47:20;17.70;99.90
15143;DHT22;7672;50.834;6.286;2023-06-14T02:49:48;17.70;99.90
15143;DHT22;7672;50.834;6.286;2023-06-14T02:52:15;17.70;99.90
15143;DHT22;7672;50.834;6.286;2023-06-14T02:54:42;17.70;99.90
15143;DHT22;7672;50.834;6.286;2023-06-14T02:57:10;17.70;99.90
15143;DHT22;7672;50.834;6.286;2023-06-14T02:59:39;17.70;99.90
15143;DHT22;7672;50.834;6.286;2023-06-14T03:02:07;17.70;99.90
15143;DHT22;7672;50.834;6.286;2023-06-14T03:04:35;17.70;99.90
15143;DHT22;7672;50.834;6.286;2023-06-14T03:07:09;17.70;99.90
15143;DHT22;7672;50.834;6.286;2023-06-14T03:09:39;17.70;99.90
15143;DHT22;7672;50.834;6.286;2023-06-14T03:12:10;17.50;99.90
15143;DHT22;7672;50.834;6.286;2023-06-14T03:14:38;17.50;99.90
15143;DHT22;7672;50.834;6.286;2023-06-14T03:17:07;17.40;99.90
15143;DHT22;7672;50.834;6.286;2023-06-14T03:19:38;17.40;99.90
15143;DHT22;7672;50.834;6.286;2023-06-14T03:22:05;17.30;99.90
15143;DHT22;7672;50.834;6.286;2023-06-14T03:24:35;17.20;99.90
15143;DHT22;7672;50.834;6.286;2023-06-14T03:27:08;17.20;99.90
15143;DHT22;7672;50.834;6.286;2023-06-14T03:29:39;17.10;99.90
15143;DHT22;7672;50.834;6.286;2023-06-14T03:32:08;17.00;99.90
15143;DHT22;7672;50.834;6.286;2023-06-14T03:34:38;17.00;99.90
15143;DHT22;7672;50.834;6.286;2023-06-14T03:37:08;17.10;99.90
15143;DHT22;7672;50.834;6.286;2023-06-14T03:39:35;16.90;99.90
15143;DHT22;7672;50.834;6.286;2023-06-14T03:42:03;16.80;99.90
15143;DHT22;7672;50.834;6.286;2023-06-14T03:44:31;16.80;99.90
15143;DHT22;7672;50.834;6.286;2023-06-14T03:47:00;16.70;99.90
15143;DHT22;7672;50.834;6.286;2023-06-14T03:49:28;17.00;99.90
15143;DHT22;7672;50.834;6.286;2023-06-14T03:51:55;16.70;99.90
15143;DHT22;7672;50.834;6.286;2023-06-14T03:54:23;17.00;99.90
15143;DHT22;7672;50.834;6.286;2023-06-14T03:56:54;16.70;99.90
15143;DHT22;7672;50.834;6.286;2023-06-14T03:59:23;16.70;99.90
15143;DHT22;7672;50.834;6.286;2023-06-14T04:01:50;16.80;99.90
15143;DHT22;7672;50.834;6.286;2023-06-14T04:04:18;16.90;99.90
15143;DHT22;7672;50.834;6.286;2023-06-14T04:06:45;17.00;99.90
15143;DHT22;7672;50.834;6.286;2023-06-14T04:09:15;17.10;99.90
15143;DHT22;7672;50.834;6.286;2023-06-14T04:11:42;17.10;99.90
15143;DHT22;7672;50.834;6.286;2023-06-14T04:14:09;17.30;99.90
15143;DHT22;7672;50.834;6.286;2023-06-14T04:16:37;17.40;99.90
15143;DHT22;7672;50.834;6.286;2023-06-14T04:19:04;17.50;99.90
15143;DHT22;7672;50.834;6.286;2023-06-14T04:21:31;17.60;99.90
15143;DHT22;7672;50.834;6.286;2023-06-14T04:24:03;17.80;99.90
15143;DHT22;7672;50.834;6.286;2023-06-14T04:26:32;17.90;99.90
15143;DHT22;7672;50.834;6.286;2023-06-14T04:29:00;18.10;99.90
15143;DHT22;7672;50.834;6.286;2023-06-14T04:31:31;18.20;99.90
15143;DHT22;7672;50.834;6.286;2023-06-14T04:34:06;18.30;99.90
15143;DHT22;7672;50.834;6.286;2023-06-14T04:36:35;18.40;99.90
15143;DHT22;7672;50.834;6.286;2023-06-14T04:39:04;18.60;99.90
15143;DHT22;7672;50.834;6.286;2023-06-14T04:41:31;18.70;99.90
15143;DHT22;7672;50.834;6.286;2023-06-14T04:44:00;18.90;99.90
15143;DHT22;7672;50.834;6.286;2023-06-14T04:46:36;19.10;99.90
15143;DHT22;7672;50.834;6.286;2023-06-14T04:49:20;19.30;99.90
15143;DHT22;7672;50.834;6.286;2023-06-14T04:51:53;19.50;99.90
15143;DHT22;7672;50.834;6.286;2023-06-14T04:54:33;19.70;99.90
15143;DHT22;7672;50.834;6.286;2023-06-14T04:57:05;19.90;99.90
15143;DHT22;7672;50.834;6.286;2023-06-14T04:59:33;20.00;99.90
15143;DHT22;7672;50.834;6.286;2023-06-14T05:02:02;20.10;99.90
15143;DHT22;7672;50.834;6.286;2023-06-14T05:04:29;20.30;99.90
15143;DHT22;7672;50.834;6.286;2023-06-14T05:06:58;20.50;99.90
15143;DHT22;7672;50.834;6.286;2023-06-14T05:09:25;20.70;99.90
15143;DHT22;7672;50.834;6.286;2023-06-14T05:11:52;20.90;99.90
15143;DHT22;7672;50.834;6.286;2023-06-14T05:14:20;21.10;99.90
15143;DHT22;7672;50.834;6.286;2023-06-14T05:16:50;21.30;99.90
15143;DHT22;7672;50.834;6.286;2023-06-14T05:19:17;21.40;99.90
15143;DHT22;7672;50.834;6.286;2023-06-14T05:21:45;21.80;99.90
15143;DHT22;7672;50.834;6.286;2023-06-14T05:24:13;21.70;99.90
15143;DHT22;7672;50.834;6.286;2023-06-14T05:26:40;21.80;99.90
15143;DHT22;7672;50.834;6.286;2023-06-14T05:29:07;21.90;99.90
15143;DHT22;7672;50.834;6.286;2023-06-14T05:31:34;22.00;99.90
15143;DHT22;7672;50.834;6.286;2023-06-14T05:34:02;22.00;99.90
15143;DHT22;7672;50.834;6.286;2023-06-14T05:36:29;22.20;99.90
15143;DHT22;7672;50.834;6.286;2023-06-14T05:38:58;22.20;99.90
15143;DHT22;7672;50.834;6.286;2023-06-14T05:41:27;22.30;99.90
15143;DHT22;7672;50.834;6.286;2023-06-14T05:43:55;22.30;99.90
15143;DHT22;7672;50.834;6.286;2023-06-14T05:46:23;22.40;99.90
15143;DHT22;7672;50.834;6.286;2023-06-14T05:48:54;22.40;99.90
15143;DHT22;7672;50.834;6.286;2023-06-14T05:51:23;22.40;99.90
15143;DHT22;7672;50.834;6.286;2023-06-14T05:53:52;22.50;99.90
15143;DHT22;7672;50.834;6.286;2023-06-14T05:56:20;22.40;99.90
15143;DHT22;7672;50.834;6.286;2023-06-14T05:58:47;22.60;99.90
15143;DHT22;7672;50.834;6.286;2023-06-14T06:01:14;22.60;99.90
15143;DHT22;7672;50.834;6.286;2023-06-14T06:03:42;22.70;99.90
15143;DHT22;7672;50.834;6.286;2023-06-14T06:06:13;22.80;99.90
15143;DHT22;7672;50.834;6.286;2023-06-14T06:08:41;22.80;99.90
15143;DHT22;7672;50.834;6.286;2023-06-14T06:11:08;22.80;99.90
15143;DHT22;7672;50.834;6.286;2023-06-14T06:13:35;22.90;99.90
15143;DHT22;7672;50.834;6.286;2023-06-14T06:16:03;23.00;99.90
15143;DHT22;7672;50.834;6.286;2023-06-14T06:18:30;23.00;99.90
15143;DHT22;7672;50.834;6.286;2023-06-14T06:20:57;23.10;99.90
15143;DHT22;7672;50.834;6.286;2023-06-14T06:23:24;23.10;99.90
15143;DHT22;7672;50.834;6.286;2023-06-14T06:25:52;23.20;99.90
15143;DHT22;7672;50.834;6.286;2023-06-14T06:28:19;23.30;99.90
15143;DHT22;7672;50.834;6.286;2023-06-14T06:30:47;23.40;99.90
15143;DHT22;7672;50.834;6.286;2023-06-14T06:33:14;23.50;99.90
15143;DHT22;7672;50.834;6.286;2023-06-14T06:35:41;23.60;99.90
15143;DHT22;7672;50.834;6.286;2023-06-14T06:38:09;23.70;99.90
15143;DHT22;7672;50.834;6.286;2023-06-14T06:40:37;23.70;99.90
15143;DHT22;7672;50.834;6.286;2023-06-14T06:43:04;23.90;99.90
15143;DHT22;7672;50.834;6.286;2023-06-14T06:45:42;24.00;99.90
15143;DHT22;7672;50.834;6.286;2023-06-14T06:48:09;24.10;99.70
15143;DHT22;7672;50.834;6.286;2023-06-14T06:50:37;24.20;99.90
15143;DHT22;7672;50.834;6.286;2023-06-14T06:53:04;24.30;99.90
15143;DHT22;7672;50.834;6.286;2023-06-14T06:55:32;24.30;98.40
15143;DHT22;7672;50.834;6.286;2023-06-14T06:57:59;24.50;98.80
15143;DHT22;7672;50.834;6.286;2023-06-14T07:00:27;24.50;99.30
15143;DHT22;7672;50.834;6.286;2023-06-14T07:02:54;24.60;98.40
15143;DHT22;7672;50.834;6.286;2023-06-14T07:05:22;24.70;98.00
15143;DHT22;7672;50.834;6.286;2023-06-14T07:07:50;24.70;97.60
15143;DHT22;7672;50.834;6.286;2023-06-14T07:10:17;24.70;96.40
15143;DHT22;7672;50.834;6.286;2023-06-14T07:12:45;24.70;96.80
15143;DHT22;7672;50.834;6.286;2023-06-14T07:15:12;24.70;96.40
15143;DHT22;7672;50.834;6.286;2023-06-14T07:17:40;24.70;96.60
15143;DHT22;7672;50.834;6.286;2023-06-14T07:20:09;24.70;96.10
15143;DHT22;7672;50.834;6.286;2023-06-14T07:22:40;24.70;96.00
15143;DHT22;7672;50.834;6.286;2023-06-14T07:25:11;24.80;97.00
15143;DHT22;7672;50.834;6.286;2023-06-14T07:27:44;24.80;96.10
15143;DHT22;7672;50.834;6.286;2023-06-14T07:30:13;25.00;96.50
15143;DHT22;7672;50.834;6.286;2023-06-14T07:32:40;25.10;96.10
15143;DHT22;7672;50.834;6.286;2023-06-14T07:35:08;25.20;95.40
15143;DHT22;7672;50.834;6.286;2023-06-14T07:37:35;25.30;95.80
15143;DHT22;7672;50.834;6.286;2023-06-14T07:40:03;25.50;95.50
15143;DHT22;7672;50.834;6.286;2023-06-14T07:42:34;25.60;95.60
15143;DHT22;7672;50.834;6.286;2023-06-14T07:45:06;25.80;94.30
15143;DHT22;7672;50.834;6.286;2023-06-14T07:47:34;26.10;94.40
15143;DHT22;7672;50.834;6.286;2023-06-14T07:50:02;26.40;93.40
15143;DHT22;7672;50.834;6.286;2023-06-14T07:52:29;26.70;93.40
15143;DHT22;7672;50.834;6.286;2023-06-14T07:54:57;27.10;92.50
15143;DHT22;7672;50.834;6.286;2023-06-14T07:57:25;27.40;91.40
15143;DHT22;7672;50.834;6.286;2023-06-14T07:59:52;27.80;90.80
15143;DHT22;7672;50.834;6.286;2023-06-14T08:02:19;28.10;90.50
15143;DHT22;7672;50.834;6.286;2023-06-14T08:04:46;28.40;89.30
15143;DHT22;7672;50.834;6.286;2023-06-14T08:07:15;28.70;88.50
15143;DHT22;7672;50.834;6.286;2023-06-14T08:09:42;29.00;87.90
15143;DHT22;7672;50.834;6.286;2023-06-14T08:12:09;29.30;85.30
15143;DHT22;7672;50.834;6.286;2023-06-14T08:14:38;29.50;84.10
15143;DHT22;7672;50.834;6.286;2023-06-14T08:17:06;29.80;83.70
15143;DHT22;7672;50.834;6.286;2023-06-14T08:19:33;30.00;82.40
15143;DHT22;7672;50.834;6.286;2023-06-14T08:22:01;30.30;81.30
15143;DHT22;7672;50.834;6.286;2023-06-14T08:24:28;30.50;78.10
15143;DHT22;7672;50.834;6.286;2023-06-14T08:26:56;30.70;79.10
15143;DHT22;7672;50.834;6.286;2023-06-14T08:29:24;30.90;78.40
15143;DHT22;7672;50.834;6.286;2023-06-14T08:31:51;31.10;77.20
15143;DHT22;7672;50.834;6.286;2023-06-14T08:34:18;31.40;76.70
15143;DHT22;7672;50.834;6.286;2023-06-14T08:36:45;31.60;77.00
15143;DHT22;7672;50.834;6.286;2023-06-14T08:39:12;31.80;74.90
15143;DHT22;7672;50.834;6.286;2023-06-14T08:41:40;32.10;76.20
15143;DHT22;7672;50.834;6.286;2023-06-14T08:44:08;32.40;75.30
15143;DHT22;7672;50.834;6.286;2023-06-14T08:46:37;32.60;72.90
15143;DHT22;7672;50.834;6.286;2023-06-14T08:49:04;32.90;71.30
15143;DHT22;7672;50.834;6.286;2023-06-14T08:51:35;33.00;71.50
15143;DHT22;7672;50.834;6.286;2023-06-14T08:54:03;33.10;70.80
15143;DHT22;7672;50.834;6.286;2023-06-14T08:56:31;33.30;71.10
15143;DHT22;7672;50.834;6.286;2023-06-14T08:59:00;33.50;71.70
15143;DHT22;7672;50.834;6.286;2023-06-14T09:01:33;33.80;70.00
15143;DHT22;7672;50.834;6.286;2023-06-14T09:04:01;34.00;69.10
15143;DHT22;7672;50.834;6.286;2023-06-14T09:06:29;34.20;69.80
15143;DHT22;7672;50.834;6.286;2023-06-14T09:08:57;34.40;68.70
15143;DHT22;7672;50.834;6.286;2023-06-14T09:11:24;34.50;66.20
15143;DHT22;7672;50.834;6.286;2023-06-14T09:13:53;34.60;67.00
15143;DHT22;7672;50.834;6.286;2023-06-14T09:16:20;34.60;67.80
15143;DHT22;7672;50.834;6.286;2023-06-14T09:18:47;34.80;64.80
15143;DHT22;7672;50.834;6.286;2023-06-14T09:21:16;34.70;65.40
15143;DHT22;7672;50.834;6.286;2023-06-14T09:23:45;34.60;64.80
15143;DHT22;7672;50.834;6.286;2023-06-14T09:26:18;34.60;63.90
15143;DHT22;7672;50.834;6.286;2023-06-14T09:28:54;34.60;65.80
15143;DHT22;7672;50.834;6.286;2023-06-14T09:31:22;34.60;66.60
15143;DHT22;7672;50.834;6.286;2023-06-14T09:33:50;34.60;64.50
15143;DHT22;7672;50.834;6.286;2023-06-14T09:36:22;34.60;65.60
15143;DHT22;7672;50.834;6.286;2023-06-14T09:38:58;34.70;63.90
15143;DHT22;7672;50.834;6.286;2023-06-14T09:41:31;34.90;64.00
15143;DHT22;7672;50.834;6.286;2023-06-14T09:44:10;34.90;61.90
15143;DHT22;7672;50.834;6.286;2023-06-14T09:46:46;34.90;63.90
15143;DHT22;7672;50.834;6.286;2023-06-14T09:49:15;34.80;62.20
15143;DHT22;7672;50.834;6.286;2023-06-14T09:51:44;34.70;62.00
15143;DHT22;7672;50.834;6.286;2023-06-14T09:54:15;34.70;62.40
15143;DHT22;7672;50.834;6.286;2023-06-14T09:56:47;34.80;62.70
15143;DHT22;7672;50.834;6.286;2023-06-14T09:59:19;34.80;63.10
15143;DHT22;7672;50.834;6.286;2023-06-14T10:01:58;34.80;63.60
15143;DHT22;7672;50.834;6.286;2023-06-14T10:04:29;34.90;62.60
15143;DHT22;7672;50.834;6.286;2023-06-14T10:06:58;34.90;61.80
15143;DHT22;7672;50.834;6.286;2023-06-14T10:09:28;35.00;62.80
15143;DHT22;7672;50.834;6.286;2023-06-14T10:11:59;35.20;61.80
15143;DHT22;7672;50.834;6.286;2023-06-14T10:14:27;35.30;61.70
15143;DHT22;7672;50.834;6.286;2023-06-14T10:17:06;35.50;59.40
15143;DHT22;7672;50.834;6.286;2023-06-14T10:19:44;35.60;59.70
15143;DHT22;7672;50.834;6.286;2023-06-14T10:22:29;35.60;58.20
15143;DHT22;7672;50.834;6.286;2023-06-14T10:25:02;35.50;57.40
15143;DHT22;7672;50.834;6.286;2023-06-14T10:27:35;35.30;58.40
15143;DHT22;7672;50.834;6.286;2023-06-14T10:30:03;35.20;58.20
15143;DHT22;7672;50.834;6.286;2023-06-14T10:32:32;35.00;56.90
15143;DHT22;7672;50.834;6.286;2023-06-14T10:35:08;34.90;56.50
15143;DHT22;7672;50.834;6.286;2023-06-14T10:37:35;34.80;56.70
15143;DHT22;7672;50.834;6.286;2023-06-14T10:40:03;34.80;57.80
15143;DHT22;7672;50.834;6.286;2023-06-14T10:42:35;34.80;58.00
15143;DHT22;7672;50.834;6.286;2023-06-14T10:45:02;34.80;57.70
15143;DHT22;7672;50.834;6.286;2023-06-14T10:47:31;34.70;56.90
15143;DHT22;7672;50.834;6.286;2023-06-14T10:52:32;34.60;56.40
15143;DHT22;7672;50.834;6.286;2023-06-14T10:55:11;34.60;57.10
15143;DHT22;7672;50.834;6.286;2023-06-14T10:57:51;34.60;57.30
15143;DHT22;7672;50.834;6.286;2023-06-14T11:00:24;34.50;56.90
15143;DHT22;7672;50.834;6.286;2023-06-14T11:05:54;34.30;56.90
15143;DHT22;7672;50.834;6.286;2023-06-14T11:11:35;34.20;56.40
15143;DHT22;7672;50.834;6.286;2023-06-14T11:14:03;34.00;57.70
15143;DHT22;7672;50.834;6.286;2023-06-14T11:16:31;33.90;58.00
15143;DHT22;7672;50.834;6.286;2023-06-14T11:19:03;33.60;58.10
15143;DHT22;7672;50.834;6.286;2023-06-14T11:21:32;33.70;58.80
15143;DHT22;7672;50.834;6.286;2023-06-14T11:24:00;33.60;58.50
15143;DHT22;7672;50.834;6.286;2023-06-14T11:26:29;33.50;58.60
15143;DHT22;7672;50.834;6.286;2023-06-14T11:28:59;33.30;58.30
15143;DHT22;7672;50.834;6.286;2023-06-14T11:31:28;33.20;58.30
15143;DHT22;7672;50.834;6.286;2023-06-14T11:33:58;33.10;58.30
15143;DHT22;7672;50.834;6.286;2023-06-14T11:36:30;33.00;58.50
15143;DHT22;7672;50.834;6.286;2023-06-14T11:38:59;32.80;58.80
15143;DHT22;7672;50.834;6.286;2023-06-14T11:41:38;32.70;58.40
15143;DHT22;7672;50.834;6.286;2023-06-14T11:44:12;32.50;58.50
15143;DHT22;7672;50.834;6.286;2023-06-14T11:46:40;32.40;59.60
15143;DHT22;7672;50.834;6.286;2023-06-14T11:49:07;32.20;60.20
15143;DHT22;7672;50.834;6.286;2023-06-14T11:51:36;32.20;60.80
15143;DHT22;7672;50.834;6.286;2023-06-14T11:54:04;32.00;60.00
15143;DHT22;7672;50.834;6.286;2023-06-14T11:56:33;31.90;61.00
15143;DHT22;7672;50.834;6.286;2023-06-14T11:59:02;31.80;62.30
15143;DHT22;7672;50.834;6.286;2023-06-14T12:01:31;31.70;62.10
15143;DHT22;7672;50.834;6.286;2023-06-14T12:03:59;31.60;63.10
15143;DHT22;7672;50.834;6.286;2023-06-14T12:06:29;31.40;62.70
15143;DHT22;7672;50.834;6.286;2023-06-14T12:09:03;31.30;63.20
15143;DHT22;7672;50.834;6.286;2023-06-14T12:11:34;31.10;63.50
15143;DHT22;7672;50.834;6.286;2023-06-14T12:14:07;31.00;62.90
15143;DHT22;7672;50.834;6.286;2023-06-14T12:16:38;30.90;63.40
15143;DHT22;7672;50.834;6.286;2023-06-14T12:19:15;30.80;63.40
15143;DHT22;7672;50.834;6.286;2023-06-14T12:21:46;30.70;64.10
15143;DHT22;7672;50.834;6.286;2023-06-14T12:24:15;30.60;63.00
15143;DHT22;7672;50.834;6.286;2023-06-14T12:26:43;30.50;65.40
15143;DHT22;7672;50.834;6.286;2023-06-14T12:29:10;30.40;65.00
15143;DHT22;7672;50.834;6.286;2023-06-14T12:31:39;30.30;64.00
15143;DHT22;7672;50.834;6.286;2023-06-14T12:34:08;30.20;65.10
15143;DHT22;7672;50.834;6.286;2023-06-14T12:36:35;30.20;65.20
15143;DHT22;7672;50.834;6.286;2023-06-14T12:39:08;30.10;64.10
15143;DHT22;7672;50.834;6.286;2023-06-14T12:41:36;30.00;64.70
15143;DHT22;7672;50.834;6.286;2023-06-14T12:44:08;29.80;64.90
15143;DHT22;7672;50.834;6.286;2023-06-14T12:46:36;29.80;64.80
15143;DHT22;7672;50.834;6.286;2023-06-14T12:49:04;29.70;66.00
15143;DHT22;7672;50.834;6.286;2023-06-14T12:51:32;29.80;65.40
15143;DHT22;7672;50.834;6.286;2023-06-14T12:53:59;29.70;65.80
15143;DHT22;7672;50.834;6.286;2023-06-14T12:56:27;29.80;66.00
15143;DHT22;7672;50.834;6.286;2023-06-14T12:58:54;29.80;65.10
15143;DHT22;7672;50.834;6.286;2023-06-14T13:01:21;29.80;66.10
15143;DHT22;7672;50.834;6.286;2023-06-14T13:03:48;29.70;65.30
15143;DHT22;7672;50.834;6.286;2023-06-14T13:06:16;29.60;65.10
15143;DHT22;7672;50.834;6.286;2023-06-14T13:08:44;29.60;65.90
15143;DHT22;7672;50.834;6.286;2023-06-14T13:11:11;29.50;65.40
15143;DHT22;7672;50.834;6.286;2023-06-14T13:13:38;29.50;66.00
15143;DHT22;7672;50.834;6.286;2023-06-14T13:16:05;29.50;65.90
15143;DHT22;7672;50.834;6.286;2023-06-14T13:18:32;29.50;65.90
15143;DHT22;7672;50.834;6.286;2023-06-14T13:20:59;29.50;66.10
15143;DHT22;7672;50.834;6.286;2023-06-14T13:23:27;29.60;65.60
15143;DHT22;7672;50.834;6.286;2023-06-14T13:25:54;29.60;66.40
15143;DHT22;7672;50.834;6.286;2023-06-14T13:28:22;29.70;67.80
15143;DHT22;7672;50.834;6.286;2023-06-14T13:30:49;29.60;67.30
15143;DHT22;7672;50.834;6.286;2023-06-14T13:33:16;29.60;67.00
15143;DHT22;7672;50.834;6.286;2023-06-14T13:35:43;29.60;67.50
15143;DHT22;7672;50.834;6.286;2023-06-14T13:38:10;29.50;67.30
15143;DHT22;7672;50.834;6.286;2023-06-14T13:40:38;29.40;66.90
15143;DHT22;7672;50.834;6.286;2023-06-14T13:43:06;29.10;66.80
15143;DHT22;7672;50.834;6.286;2023-06-14T13:45:33;29.20;67.70
15143;DHT22;7672;50.834;6.286;2023-06-14T13:48:00;29.20;68.10
15143;DHT22;7672;50.834;6.286;2023-06-14T13:50:27;29.10;68.50
15143;DHT22;7672;50.834;6.286;2023-06-14T13:52:54;29.00;69.20
15143;DHT22;7672;50.834;6.286;2023-06-14T13:55:21;28.90;69.10
15143;DHT22;7672;50.834;6.286;2023-06-14T13:57:48;28.90;69.30
15143;DHT22;7672;50.834;6.286;2023-06-14T14:00:15;28.80;69.40
15143;DHT22;7672;50.834;6.286;2023-06-14T14:02:45;28.70;70.10
15143;DHT22;7672;50.834;6.286;2023-06-14T14:05:13;28.70;69.20
15143;DHT22;7672;50.834;6.286;2023-06-14T14:07:40;28.60;69.30
15143;DHT22;7672;50.834;6.286;2023-06-14T14:10:07;28.60;69.30
15143;DHT22;7672;50.834;6.286;2023-06-14T14:12:35;28.60;69.60
15143;DHT22;7672;50.834;6.286;2023-06-14T14:15:02;28.60;70.90
15143;DHT22;7672;50.834;6.286;2023-06-14T14:17:30;28.50;71.80
15143;DHT22;7672;50.834;6.286;2023-06-14T14:19:57;28.50;72.60
15143;DHT22;7672;50.834;6.286;2023-06-14T14:22:24;28.60;71.30
15143;DHT22;7672;50.834;6.286;2023-06-14T14:24:51;28.60;71.40
15143;DHT22;7672;50.834;6.286;2023-06-14T14:27:18;28.60;72.30
15143;DHT22;7672;50.834;6.286;2023-06-14T14:29:46;28.60;71.90
15143;DHT22;7672;50.834;6.286;2023-06-14T14:32:13;28.60;72.30
15143;DHT22;7672;50.834;6.286;2023-06-14T14:34:41;28.60;70.90
15143;DHT22;7672;50.834;6.286;2023-06-14T14:37:08;28.70;72.10
15143;DHT22;7672;50.834;6.286;2023-06-14T14:39:37;28.70;70.00
15143;DHT22;7672;50.834;6.286;2023-06-14T14:42:04;28.80;71.10
15143;DHT22;7672;50.834;6.286;2023-06-14T14:44:34;28.80;70.30
15143;DHT22;7672;50.834;6.286;2023-06-14T14:47:01;28.90;70.20
15143;DHT22;7672;50.834;6.286;2023-06-14T14:49:28;29.00;70.80
15143;DHT22;7672;50.834;6.286;2023-06-14T14:51:55;29.10;71.00
15143;DHT22;7672;50.834;6.286;2023-06-14T14:54:31;29.20;70.60
15143;DHT22;7672;50.834;6.286;2023-06-14T14:56:58;29.20;69.60
15143;DHT22;7672;50.834;6.286;2023-06-14T14:59:25;29.10;68.60
15143;DHT22;7672;50.834;6.286;2023-06-14T15:01:52;29.00;68.70
15143;DHT22;7672;50.834;6.286;2023-06-14T15:04:19;28.90;68.80
15143;DHT22;7672;50.834;6.286;2023-06-14T15:06:46;28.80;70.10
15143;DHT22;7672;50.834;6.286;2023-06-14T15:09:13;28.70;70.00
15143;DHT22;7672;50.834;6.286;2023-06-14T15:11:41;28.60;70.70
15143;DHT22;7672;50.834;6.286;2023-06-14T15:14:11;28.70;69.10
15143;DHT22;7672;50.834;6.286;2023-06-14T15:16:38;28.60;70.70
15143;DHT22;7672;50.834;6.286;2023-06-14T15:19:05;28.60;71.00
15143;DHT22;7672;50.834;6.286;2023-06-14T15:21:32;28.60;70.40
15143;DHT22;7672;50.834;6.286;2023-06-14T15:24:00;28.50;70.00
15143;DHT22;7672;50.834;6.286;2023-06-14T15:26:27;28.50;69.20
15143;DHT22;7672;50.834;6.286;2023-06-14T15:28:55;28.40;70.20
15143;DHT22;7672;50.834;6.286;2023-06-14T15:31:22;28.20;69.30
15143;DHT22;7672;50.834;6.286;2023-06-14T15:33:54;28.20;70.40
15143;DHT22;7672;50.834;6.286;2023-06-14T15:36:21;28.10;70.40
15143;DHT22;7672;50.834;6.286;2023-06-14T15:38:48;27.90;71.40
15143;DHT22;7672;50.834;6.286;2023-06-14T15:41:15;27.80;70.10
15143;DHT22;7672;50.834;6.286;2023-06-14T15:43:42;27.70;70.80
15143;DHT22;7672;50.834;6.286;2023-06-14T15:46:09;27.60;70.40
15143;DHT22;7672;50.834;6.286;2023-06-14T15:48:37;27.50;70.10
15143;DHT22;7672;50.834;6.286;2023-06-14T15:51:04;27.40;69.80
15143;DHT22;7672;50.834;6.286;2023-06-14T15:53:31;27.30;70.60
15143;DHT22;7672;50.834;6.286;2023-06-14T15:55:58;27.20;70.70
15143;DHT22;7672;50.834;6.286;2023-06-14T15:58:25;27.20;70.50
15143;DHT22;7672;50.834;6.286;2023-06-14T16:00:52;27.10;70.90
15143;DHT22;7672;50.834;6.286;2023-06-14T16:03:20;27.00;71.40
15143;DHT22;7672;50.834;6.286;2023-06-14T16:05:47;27.00;71.10